sensor_id;sensor_type;location;lat;lon;timestamp;P1;durP1;ratioP1;P2;durP2;ratioP2
11854;SDS011;5987;53.140;8.904;2023-04-09T00:01:35;78.77;;;40.53;;
11854;SDS011;5987;53.140;8.904;2023-04-09T00:04:40;85.07;;;42.50;;
11854;SDS011;5987;53.140;8.904;2023-04-09T00:07:43;81.97;;;40.50;;
11854;SDS011;5987;53.140;8.904;2023-04-09T00:10:47;76.83;;;37.53;;
11854;SDS011;5987;53.140;8.904;2023-04-09T00:13:50;77.83;;;38.30;;
11854;SDS011;5987;53.140;8.904;2023-04-09T00:16:54;66.77;;;35.10;;
11854;SDS011;5987;53.140;8.904;2023-04-09T00:19:59;72.00;;;35.40;;
11854;SDS011;5987;53.140;8.904;2023-04-09T00:23:02;74.60;;;36.50;;
11854;SDS011;5987;53.140;8.904;2023-04-09T00:26:06;69.50;;;37.30;;
11854;SDS011;5987;53.140;8.904;2023-04-09T00:29:10;71.07;;;36.93;;
11854;SDS011;5987;53.140;8.904;2023-04-09T00:32:13;75.53;;;36.63;;
11854;SDS011;5987;53.140;8.904;2023-04-09T00:35:19;69.13;;;35.80;;
11854;SDS011;5987;53.140;8.904;2023-04-09T00:38:22;67.27;;;34.83;;
11854;SDS011;5987;53.140;8.904;2023-04-09T00:41:26;67.87;;;35.43;;
11854;SDS011;5987;53.140;8.904;2023-04-09T00:44:30;65.20;;;35.13;;
11854;SDS011;5987;53.140;8.904;2023-04-09T00:47:33;71.17;;;35.30;;
11854;SDS011;5987;53.140;8.904;2023-04-09T00:50:39;73.73;;;35.90;;
11854;SDS011;5987;53.140;8.904;2023-04-09T00:53:43;71.63;;;35.70;;
11854;SDS011;5987;53.140;8.904;2023-04-09T00:56:48;68.83;;;36.17;;
11854;SDS011;5987;53.140;8.904;2023-04-09T00:59:51;67.63;;;36.03;;
11854;SDS011;5987;53.140;8.904;2023-04-09T01:02:55;71.93;;;35.03;;
11854;SDS011;5987;53.140;8.904;2023-04-09T01:06:05;75.23;;;36.37;;
11854;SDS011;5987;53.140;8.904;2023-04-09T01:09:18;69.57;;;36.30;;
11854;SDS011;5987;53.140;8.904;2023-04-09T01:12:31;71.43;;;36.83;;
11854;SDS011;5987;53.140;8.904;2023-04-09T01:15:43;73.13;;;35.50;;
11854;SDS011;5987;53.140;8.904;2023-04-09T01:18:55;69.07;;;35.87;;
11854;SDS011;5987;53.140;8.904;2023-04-09T01:22:13;72.40;;;33.97;;
11854;SDS011;5987;53.140;8.904;2023-04-09T01:26:00;66.67;;;34.93;;
11854;SDS011;5987;53.140;8.904;2023-04-09T01:29:11;67.57;;;34.73;;
11854;SDS011;5987;53.140;8.904;2023-04-09T01:32:19;76.40;;;39.00;;
11854;SDS011;5987;53.140;8.904;2023-04-09T01:35:25;75.17;;;36.77;;
11854;SDS011;5987;53.140;8.904;2023-04-09T01:38:30;71.60;;;37.17;;
11854;SDS011;5987;53.140;8.904;2023-04-09T01:41:37;70.13;;;34.77;;
11854;SDS011;5987;53.140;8.904;2023-04-09T01:44:44;76.60;;;36.53;;
11854;SDS011;5987;53.140;8.904;2023-04-09T01:47:48;67.03;;;35.40;;
11854;SDS011;5987;53.140;8.904;2023-04-09T01:50:53;70.63;;;34.90;;
11854;SDS011;5987;53.140;8.904;2023-04-09T01:53:57;70.70;;;34.30;;
11854;SDS011;5987;53.140;8.904;2023-04-09T01:57:01;68.63;;;33.87;;
11854;SDS011;5987;53.140;8.904;2023-04-09T02:00:07;61.23;;;33.20;;
11854;SDS011;5987;53.140;8.904;2023-04-09T02:03:14;63.87;;;33.83;;
11854;SDS011;5987;53.140;8.904;2023-04-09T02:06:24;63.50;;;33.97;;
11854;SDS011;5987;53.140;8.904;2023-04-09T02:09:38;66.63;;;33.60;;
11854;SDS011;5987;53.140;8.904;2023-04-09T02:12:46;65.97;;;35.33;;
11854;SDS011;5987;53.140;8.904;2023-04-09T02:15:54;68.00;;;34.47;;
11854;SDS011;5987;53.140;8.904;2023-04-09T02:19:01;68.20;;;34.17;;
11854;SDS011;5987;53.140;8.904;2023-04-09T02:22:04;67.93;;;36.00;;
11854;SDS011;5987;53.140;8.904;2023-04-09T02:25:08;64.40;;;32.07;;
11854;SDS011;5987;53.140;8.904;2023-04-09T02:28:12;62.07;;;33.50;;
11854;SDS011;5987;53.140;8.904;2023-04-09T02:31:17;64.40;;;32.10;;
11854;SDS011;5987;53.140;8.904;2023-04-09T02:34:20;59.37;;;32.17;;
11854;SDS011;5987;53.140;8.904;2023-04-09T02:37:24;67.63;;;33.33;;
11854;SDS011;5987;53.140;8.904;2023-04-09T02:40:28;64.30;;;34.63;;
11854;SDS011;5987;53.140;8.904;2023-04-09T02:43:32;61.57;;;32.57;;
11854;SDS011;5987;53.140;8.904;2023-04-09T02:46:37;59.90;;;31.50;;
11854;SDS011;5987;53.140;8.904;2023-04-09T02:49:41;62.73;;;31.30;;
11854;SDS011;5987;53.140;8.904;2023-04-09T02:52:45;64.20;;;30.80;;
11854;SDS011;5987;53.140;8.904;2023-04-09T02:55:49;59.70;;;30.40;;
11854;SDS011;5987;53.140;8.904;2023-04-09T02:58:52;48.27;;;28.00;;
11854;SDS011;5987;53.140;8.904;2023-04-09T03:01:57;50.47;;;26.47;;
11854;SDS011;5987;53.140;8.904;2023-04-09T03:05:01;51.90;;;26.23;;
11854;SDS011;5987;53.140;8.904;2023-04-09T03:08:05;44.83;;;25.13;;
11854;SDS011;5987;53.140;8.904;2023-04-09T03:11:08;41.53;;;23.63;;
11854;SDS011;5987;53.140;8.904;2023-04-09T03:14:12;44.60;;;22.93;;
11854;SDS011;5987;53.140;8.904;2023-04-09T03:17:17;40.50;;;22.00;;
11854;SDS011;5987;53.140;8.904;2023-04-09T03:20:20;37.57;;;21.73;;
11854;SDS011;5987;53.140;8.904;2023-04-09T03:23:24;33.43;;;20.87;;
11854;SDS011;5987;53.140;8.904;2023-04-09T03:26:27;34.70;;;18.97;;
11854;SDS011;5987;53.140;8.904;2023-04-09T03:29:36;38.53;;;20.30;;
11854;SDS011;5987;53.140;8.904;2023-04-09T03:32:41;34.80;;;20.37;;
11854;SDS011;5987;53.140;8.904;2023-04-09T03:35:45;35.27;;;19.47;;
11854;SDS011;5987;53.140;8.904;2023-04-09T03:38:48;40.90;;;20.50;;
11854;SDS011;5987;53.140;8.904;2023-04-09T03:41:52;55.20;;;26.37;;
11854;SDS011;5987;53.140;8.904;2023-04-09T03:44:58;56.67;;;27.73;;
11854;SDS011;5987;53.140;8.904;2023-04-09T03:48:03;53.10;;;27.67;;
11854;SDS011;5987;53.140;8.904;2023-04-09T03:51:09;49.03;;;24.87;;
11854;SDS011;5987;53.140;8.904;2023-04-09T03:54:14;48.30;;;24.17;;
11854;SDS011;5987;53.140;8.904;2023-04-09T03:57:17;37.97;;;20.43;;
11854;SDS011;5987;53.140;8.904;2023-04-09T04:00:21;37.00;;;19.70;;
11854;SDS011;5987;53.140;8.904;2023-04-09T04:03:26;32.47;;;18.20;;
11854;SDS011;5987;53.140;8.904;2023-04-09T04:06:31;35.17;;;18.83;;
11854;SDS011;5987;53.140;8.904;2023-04-09T04:09:36;29.03;;;17.10;;
11854;SDS011;5987;53.140;8.904;2023-04-09T04:12:39;36.97;;;18.50;;
11854;SDS011;5987;53.140;8.904;2023-04-09T04:15:43;35.20;;;18.60;;
11854;SDS011;5987;53.140;8.904;2023-04-09T04:18:48;30.17;;;17.50;;
11854;SDS011;5987;53.140;8.904;2023-04-09T04:21:52;31.27;;;17.30;;
11854;SDS011;5987;53.140;8.904;2023-04-09T04:24:56;30.30;;;16.83;;
11854;SDS011;5987;53.140;8.904;2023-04-09T04:27:59;33.70;;;17.57;;
11854;SDS011;5987;53.140;8.904;2023-04-09T04:31:06;31.90;;;17.60;;
11854;SDS011;5987;53.140;8.904;2023-04-09T04:34:12;35.07;;;19.17;;
11854;SDS011;5987;53.140;8.904;2023-04-09T04:37:16;38.07;;;20.67;;
11854;SDS011;5987;53.140;8.904;2023-04-09T04:40:19;40.87;;;21.37;;
11854;SDS011;5987;53.140;8.904;2023-04-09T04:43:23;43.33;;;21.57;;
11854;SDS011;5987;53.140;8.904;2023-04-09T04:46:27;41.83;;;21.50;;
11854;SDS011;5987;53.140;8.904;2023-04-09T04:49:32;37.33;;;21.20;;
11854;SDS011;5987;53.140;8.904;2023-04-09T04:52:35;39.43;;;21.57;;
11854;SDS011;5987;53.140;8.904;2023-04-09T04:55:40;45.73;;;23.30;;
11854;SDS011;5987;53.140;8.904;2023-04-09T04:58:47;48.90;;;24.90;;
11854;SDS011;5987;53.140;8.904;2023-04-09T05:01:51;47.83;;;25.43;;
11854;SDS011;5987;53.140;8.904;2023-04-09T05:04:56;51.07;;;26.93;;
11854;SDS011;5987;53.140;8.904;2023-04-09T05:07:59;52.40;;;26.30;;
11854;SDS011;5987;53.140;8.904;2023-04-09T05:11:03;48.67;;;27.20;;
11854;SDS011;5987;53.140;8.904;2023-04-09T05:14:07;49.37;;;26.40;;
11854;SDS011;5987;53.140;8.904;2023-04-09T05:17:10;45.93;;;25.80;;
11854;SDS011;5987;53.140;8.904;2023-04-09T05:20:15;55.37;;;26.67;;
11854;SDS011;5987;53.140;8.904;2023-04-09T05:23:19;55.43;;;29.07;;
11854;SDS011;5987;53.140;8.904;2023-04-09T05:26:23;53.50;;;27.10;;
11854;SDS011;5987;53.140;8.904;2023-04-09T05:29:27;50.27;;;27.40;;
11854;SDS011;5987;53.140;8.904;2023-04-09T05:32:31;55.40;;;28.57;;
11854;SDS011;5987;53.140;8.904;2023-04-09T05:35:38;54.67;;;27.33;;
11854;SDS011;5987;53.140;8.904;2023-04-09T05:38:42;54.30;;;26.37;;
11854;SDS011;5987;53.140;8.904;2023-04-09T05:41:46;53.07;;;27.33;;
11854;SDS011;5987;53.140;8.904;2023-04-09T05:44:50;54.23;;;28.27;;
11854;SDS011;5987;53.140;8.904;2023-04-09T05:47:54;60.17;;;30.00;;
11854;SDS011;5987;53.140;8.904;2023-04-09T05:50:59;58.87;;;29.27;;
11854;SDS011;5987;53.140;8.904;2023-04-09T05:54:03;67.30;;;30.50;;
11854;SDS011;5987;53.140;8.904;2023-04-09T05:57:06;58.47;;;29.67;;
11854;SDS011;5987;53.140;8.904;2023-04-09T06:00:10;55.93;;;30.13;;
11854;SDS011;5987;53.140;8.904;2023-04-09T06:03:15;60.80;;;30.17;;
11854;SDS011;5987;53.140;8.904;2023-04-09T06:06:20;60.13;;;31.07;;
11854;SDS011;5987;53.140;8.904;2023-04-09T06:09:24;59.20;;;30.90;;
11854;SDS011;5987;53.140;8.904;2023-04-09T06:12:28;54.23;;;28.23;;
11854;SDS011;5987;53.140;8.904;2023-04-09T06:15:32;46.93;;;27.93;;
11854;SDS011;5987;53.140;8.904;2023-04-09T06:18:35;54.57;;;29.07;;
11854;SDS011;5987;53.140;8.904;2023-04-09T06:21:40;51.47;;;28.63;;
11854;SDS011;5987;53.140;8.904;2023-04-09T06:24:44;50.60;;;26.67;;
11854;SDS011;5987;53.140;8.904;2023-04-09T06:27:48;50.27;;;26.87;;
11854;SDS011;5987;53.140;8.904;2023-04-09T06:30:51;49.43;;;26.57;;
11854;SDS011;5987;53.140;8.904;2023-04-09T06:33:55;46.70;;;26.10;;
11854;SDS011;5987;53.140;8.904;2023-04-09T06:37:00;43.67;;;22.37;;
11854;SDS011;5987;53.140;8.904;2023-04-09T06:40:04;39.30;;;21.80;;
11854;SDS011;5987;53.140;8.904;2023-04-09T06:43:09;36.23;;;21.37;;
11854;SDS011;5987;53.140;8.904;2023-04-09T06:46:13;34.43;;;19.73;;
11854;SDS011;5987;53.140;8.904;2023-04-09T06:49:20;35.60;;;19.63;;
11854;SDS011;5987;53.140;8.904;2023-04-09T06:52:25;35.73;;;18.87;;
11854;SDS011;5987;53.140;8.904;2023-04-09T06:55:29;31.10;;;19.40;;
11854;SDS011;5987;53.140;8.904;2023-04-09T06:58:33;32.90;;;18.47;;
11854;SDS011;5987;53.140;8.904;2023-04-09T07:01:37;29.93;;;17.10;;
11854;SDS011;5987;53.140;8.904;2023-04-09T07:04:41;28.77;;;15.27;;
11854;SDS011;5987;53.140;8.904;2023-04-09T07:07:46;24.70;;;15.43;;
11854;SDS011;5987;53.140;8.904;2023-04-09T07:10:50;26.03;;;17.03;;
11854;SDS011;5987;53.140;8.904;2023-04-09T07:13:54;24.63;;;14.83;;
11854;SDS011;5987;53.140;8.904;2023-04-09T07:16:57;24.20;;;14.37;;
11854;SDS011;5987;53.140;8.904;2023-04-09T07:20:01;22.57;;;15.13;;
11854;SDS011;5987;53.140;8.904;2023-04-09T07:23:07;28.13;;;14.67;;
11854;SDS011;5987;53.140;8.904;2023-04-09T07:26:17;25.73;;;14.83;;
11854;SDS011;5987;53.140;8.904;2023-04-09T07:29:20;23.43;;;15.30;;
11854;SDS011;5987;53.140;8.904;2023-04-09T07:32:25;23.87;;;14.93;;
11854;SDS011;5987;53.140;8.904;2023-04-09T07:35:29;22.30;;;13.93;;
11854;SDS011;5987;53.140;8.904;2023-04-09T07:38:36;23.03;;;13.03;;
11854;SDS011;5987;53.140;8.904;2023-04-09T07:41:40;25.00;;;15.10;;
11854;SDS011;5987;53.140;8.904;2023-04-09T07:44:44;24.73;;;14.50;;
11854;SDS011;5987;53.140;8.904;2023-04-09T07:47:49;24.47;;;14.33;;
11854;SDS011;5987;53.140;8.904;2023-04-09T07:50:53;24.97;;;13.73;;
11854;SDS011;5987;53.140;8.904;2023-04-09T07:53:58;22.47;;;13.67;;
11854;SDS011;5987;53.140;8.904;2023-04-09T07:57:01;23.53;;;13.67;;
11854;SDS011;5987;53.140;8.904;2023-04-09T08:00:05;22.83;;;14.80;;
11854;SDS011;5987;53.140;8.904;2023-04-09T08:03:10;25.53;;;15.33;;
11854;SDS011;5987;53.140;8.904;2023-04-09T08:06:15;22.47;;;14.63;;
11854;SDS011;5987;53.140;8.904;2023-04-09T08:09:20;24.47;;;16.00;;
11854;SDS011;5987;53.140;8.904;2023-04-09T08:12:23;27.30;;;15.80;;
11854;SDS011;5987;53.140;8.904;2023-04-09T08:15:27;23.97;;;15.57;;
11854;SDS011;5987;53.140;8.904;2023-04-09T08:18:31;25.73;;;16.70;;
11854;SDS011;5987;53.140;8.904;2023-04-09T08:21:35;26.43;;;16.47;;
11854;SDS011;5987;53.140;8.904;2023-04-09T08:24:42;28.70;;;16.43;;
11854;SDS011;5987;53.140;8.904;2023-04-09T08:27:45;25.60;;;15.80;;
11854;SDS011;5987;53.140;8.904;2023-04-09T08:30:49;23.30;;;15.70;;
11854;SDS011;5987;53.140;8.904;2023-04-09T08:33:53;23.73;;;15.43;;
11854;SDS011;5987;53.140;8.904;2023-04-09T08:36:56;25.03;;;14.37;;
11854;SDS011;5987;53.140;8.904;2023-04-09T08:40:02;25.87;;;15.13;;
11854;SDS011;5987;53.140;8.904;2023-04-09T08:43:07;20.80;;;13.60;;
11854;SDS011;5987;53.140;8.904;2023-04-09T08:46:16;24.13;;;15.23;;
11854;SDS011;5987;53.140;8.904;2023-04-09T08:49:21;24.33;;;15.37;;
11854;SDS011;5987;53.140;8.904;2023-04-09T08:52:29;22.33;;;14.30;;
11854;SDS011;5987;53.140;8.904;2023-04-09T08:55:36;22.30;;;13.77;;
11854;SDS011;5987;53.140;8.904;2023-04-09T08:58:41;21.00;;;13.27;;
11854;SDS011;5987;53.140;8.904;2023-04-09T09:01:46;22.63;;;13.33;;
11854;SDS011;5987;53.140;8.904;2023-04-09T09:04:54;22.97;;;14.43;;
11854;SDS011;5987;53.140;8.904;2023-04-09T09:08:01;21.57;;;15.30;;
11854;SDS011;5987;53.140;8.904;2023-04-09T09:11:06;19.77;;;14.13;;
11854;SDS011;5987;53.140;8.904;2023-04-09T09:14:10;23.50;;;14.03;;
11854;SDS011;5987;53.140;8.904;2023-04-09T09:17:17;22.53;;;13.77;;
11854;SDS011;5987;53.140;8.904;2023-04-09T09:20:21;19.10;;;13.60;;
11854;SDS011;5987;53.140;8.904;2023-04-09T09:23:33;22.20;;;14.13;;
11854;SDS011;5987;53.140;8.904;2023-04-09T09:26:39;20.27;;;14.17;;
11854;SDS011;5987;53.140;8.904;2023-04-09T09:29:44;20.20;;;14.20;;
11854;SDS011;5987;53.140;8.904;2023-04-09T09:32:50;21.17;;;14.70;;
11854;SDS011;5987;53.140;8.904;2023-04-09T09:35:55;21.20;;;13.57;;
11854;SDS011;5987;53.140;8.904;2023-04-09T09:38:59;19.17;;;13.70;;
11854;SDS011;5987;53.140;8.904;2023-04-09T09:42:11;24.67;;;13.90;;
11854;SDS011;5987;53.140;8.904;2023-04-09T09:45:34;22.93;;;14.03;;
11854;SDS011;5987;53.140;8.904;2023-04-09T09:48:38;19.53;;;12.43;;
11854;SDS011;5987;53.140;8.904;2023-04-09T09:51:43;23.77;;;14.37;;
11854;SDS011;5987;53.140;8.904;2023-04-09T09:54:47;20.23;;;13.23;;
11854;SDS011;5987;53.140;8.904;2023-04-09T09:57:55;19.63;;;13.53;;
11854;SDS011;5987;53.140;8.904;2023-04-09T10:01:06;23.87;;;13.23;;
11854;SDS011;5987;53.140;8.904;2023-04-09T10:04:12;23.27;;;14.47;;
11854;SDS011;5987;53.140;8.904;2023-04-09T10:07:18;21.20;;;13.70;;
11854;SDS011;5987;53.140;8.904;2023-04-09T10:10:24;21.83;;;15.67;;
11854;SDS011;5987;53.140;8.904;2023-04-09T10:13:31;22.93;;;15.30;;
11854;SDS011;5987;53.140;8.904;2023-04-09T10:16:39;18.80;;;12.03;;
11854;SDS011;5987;53.140;8.904;2023-04-09T10:19:45;19.97;;;12.87;;
11854;SDS011;5987;53.140;8.904;2023-04-09T10:23:08;20.10;;;12.87;;
11854;SDS011;5987;53.140;8.904;2023-04-09T10:26:23;19.83;;;12.60;;
11854;SDS011;5987;53.140;8.904;2023-04-09T10:29:32;19.40;;;13.27;;
11854;SDS011;5987;53.140;8.904;2023-04-09T10:32:36;15.93;;;11.37;;
11854;SDS011;5987;53.140;8.904;2023-04-09T10:35:40;20.17;;;12.07;;
11854;SDS011;5987;53.140;8.904;2023-04-09T10:38:44;17.73;;;12.10;;
11854;SDS011;5987;53.140;8.904;2023-04-09T10:41:49;19.17;;;12.43;;
11854;SDS011;5987;53.140;8.904;2023-04-09T10:48:20;20.63;;;12.73;;
11854;SDS011;5987;53.140;8.904;2023-04-09T10:51:26;19.50;;;14.03;;
11854;SDS011;5987;53.140;8.904;2023-04-09T10:54:37;20.90;;;12.60;;
11854;SDS011;5987;53.140;8.904;2023-04-09T10:57:46;20.53;;;13.70;;
11854;SDS011;5987;53.140;8.904;2023-04-09T11:00:52;23.77;;;17.57;;
11854;SDS011;5987;53.140;8.904;2023-04-09T11:04:06;18.87;;;12.93;;
11854;SDS011;5987;53.140;8.904;2023-04-09T11:07:18;20.90;;;15.83;;
11854;SDS011;5987;53.140;8.904;2023-04-09T11:10:25;17.87;;;11.87;;
11854;SDS011;5987;53.140;8.904;2023-04-09T11:13:29;18.80;;;12.23;;
11854;SDS011;5987;53.140;8.904;2023-04-09T11:16:36;19.50;;;12.13;;
11854;SDS011;5987;53.140;8.904;2023-04-09T11:19:39;16.70;;;11.77;;
11854;SDS011;5987;53.140;8.904;2023-04-09T11:22:43;19.43;;;13.37;;
11854;SDS011;5987;53.140;8.904;2023-04-09T11:25:47;18.03;;;12.30;;
11854;SDS011;5987;53.140;8.904;2023-04-09T11:28:54;17.07;;;11.17;;
11854;SDS011;5987;53.140;8.904;2023-04-09T11:32:01;17.67;;;11.63;;
11854;SDS011;5987;53.140;8.904;2023-04-09T11:35:09;19.43;;;13.20;;
11854;SDS011;5987;53.140;8.904;2023-04-09T11:38:14;18.23;;;12.73;;
11854;SDS011;5987;53.140;8.904;2023-04-09T11:41:18;16.10;;;11.50;;
11854;SDS011;5987;53.140;8.904;2023-04-09T11:44:34;23.13;;;12.70;;
11854;SDS011;5987;53.140;8.904;2023-04-09T11:47:39;19.40;;;13.00;;
11854;SDS011;5987;53.140;8.904;2023-04-09T11:50:45;16.17;;;11.37;;
11854;SDS011;5987;53.140;8.904;2023-04-09T11:53:49;19.87;;;11.93;;
11854;SDS011;5987;53.140;8.904;2023-04-09T11:56:53;16.33;;;10.90;;
11854;SDS011;5987;53.140;8.904;2023-04-09T11:59:57;17.87;;;11.50;;
11854;SDS011;5987;53.140;8.904;2023-04-09T12:03:06;18.07;;;11.73;;
11854;SDS011;5987;53.140;8.904;2023-04-09T12:06:12;13.93;;;10.27;;
11854;SDS011;5987;53.140;8.904;2023-04-09T12:09:16;15.10;;;10.40;;
11854;SDS011;5987;53.140;8.904;2023-04-09T12:12:20;12.37;;;9.73;;
11854;SDS011;5987;53.140;8.904;2023-04-09T12:15:29;15.60;;;11.03;;
11854;SDS011;5987;53.140;8.904;2023-04-09T12:18:36;18.10;;;10.33;;
11854;SDS011;5987;53.140;8.904;2023-04-09T12:21:43;13.17;;;9.70;;
11854;SDS011;5987;53.140;8.904;2023-04-09T12:24:48;17.50;;;13.33;;
11854;SDS011;5987;53.140;8.904;2023-04-09T12:27:52;21.07;;;17.00;;
11854;SDS011;5987;53.140;8.904;2023-04-09T12:30:57;17.30;;;11.73;;
11854;SDS011;5987;53.140;8.904;2023-04-09T12:34:04;44.57;;;34.90;;
11854;SDS011;5987;53.140;8.904;2023-04-09T12:37:07;10.97;;;8.47;;
11854;SDS011;5987;53.140;8.904;2023-04-09T12:40:11;11.37;;;8.50;;
11854;SDS011;5987;53.140;8.904;2023-04-09T12:43:15;12.73;;;9.63;;
11854;SDS011;5987;53.140;8.904;2023-04-09T12:46:18;12.80;;;9.07;;
11854;SDS011;5987;53.140;8.904;2023-04-09T12:49:24;12.43;;;9.00;;
11854;SDS011;5987;53.140;8.904;2023-04-09T12:52:27;11.33;;;8.30;;
11854;SDS011;5987;53.140;8.904;2023-04-09T12:55:31;11.17;;;8.70;;
11854;SDS011;5987;53.140;8.904;2023-04-09T12:58:35;13.80;;;8.67;;
11854;SDS011;5987;53.140;8.904;2023-04-09T13:01:39;13.17;;;8.90;;
11854;SDS011;5987;53.140;8.904;2023-04-09T13:04:45;15.37;;;8.60;;
11854;SDS011;5987;53.140;8.904;2023-04-09T13:07:49;12.77;;;9.40;;
11854;SDS011;5987;53.140;8.904;2023-04-09T13:10:53;11.73;;;8.20;;
11854;SDS011;5987;53.140;8.904;2023-04-09T13:13:56;12.63;;;8.90;;
11854;SDS011;5987;53.140;8.904;2023-04-09T13:17:00;12.53;;;8.90;;
11854;SDS011;5987;53.140;8.904;2023-04-09T13:20:06;12.63;;;9.50;;
11854;SDS011;5987;53.140;8.904;2023-04-09T13:23:11;12.27;;;8.37;;
11854;SDS011;5987;53.140;8.904;2023-04-09T13:26:14;11.13;;;7.97;;
11854;SDS011;5987;53.140;8.904;2023-04-09T13:29:18;11.97;;;9.13;;
11854;SDS011;5987;53.140;8.904;2023-04-09T13:32:23;11.20;;;8.20;;
11854;SDS011;5987;53.140;8.904;2023-04-09T13:35:29;12.10;;;8.60;;
11854;SDS011;5987;53.140;8.904;2023-04-09T13:38:32;10.37;;;8.00;;
11854;SDS011;5987;53.140;8.904;2023-04-09T13:41:36;13.03;;;9.00;;
11854;SDS011;5987;53.140;8.904;2023-04-09T13:44:43;11.97;;;8.90;;
11854;SDS011;5987;53.140;8.904;2023-04-09T13:47:47;12.83;;;8.60;;
11854;SDS011;5987;53.140;8.904;2023-04-09T13:50:52;12.47;;;9.03;;
11854;SDS011;5987;53.140;8.904;2023-04-09T13:53:55;10.70;;;8.60;;
11854;SDS011;5987;53.140;8.904;2023-04-09T13:56:59;12.27;;;9.17;;
11854;SDS011;5987;53.140;8.904;2023-04-09T14:00:04;12.93;;;9.23;;
11854;SDS011;5987;53.140;8.904;2023-04-09T14:03:09;12.43;;;8.37;;
11854;SDS011;5987;53.140;8.904;2023-04-09T14:06:16;11.67;;;8.60;;
11854;SDS011;5987;53.140;8.904;2023-04-09T14:09:20;11.47;;;8.60;;
11854;SDS011;5987;53.140;8.904;2023-04-09T14:12:23;10.43;;;8.13;;
11854;SDS011;5987;53.140;8.904;2023-04-09T14:15:27;12.87;;;9.50;;
11854;SDS011;5987;53.140;8.904;2023-04-09T14:18:31;12.70;;;7.77;;
11854;SDS011;5987;53.140;8.904;2023-04-09T14:21:36;11.37;;;8.77;;
11854;SDS011;5987;53.140;8.904;2023-04-09T14:24:41;11.63;;;9.03;;
11854;SDS011;5987;53.140;8.904;2023-04-09T14:27:44;11.77;;;8.87;;
11854;SDS011;5987;53.140;8.904;2023-04-09T14:30:48;12.90;;;8.60;;
11854;SDS011;5987;53.140;8.904;2023-04-09T14:33:51;12.30;;;9.13;;
11854;SDS011;5987;53.140;8.904;2023-04-09T14:36:56;10.77;;;8.30;;
11854;SDS011;5987;53.140;8.904;2023-04-09T14:40:00;11.70;;;8.53;;
11854;SDS011;5987;53.140;8.904;2023-04-09T14:43:03;12.83;;;9.13;;
11854;SDS011;5987;53.140;8.904;2023-04-09T14:46:07;12.43;;;8.57;;
11854;SDS011;5987;53.140;8.904;2023-04-09T14:49:12;14.07;;;9.43;;
11854;SDS011;5987;53.140;8.904;2023-04-09T14:52:17;12.00;;;8.53;;
11854;SDS011;5987;53.140;8.904;2023-04-09T14:55:21;13.07;;;8.37;;
11854;SDS011;5987;53.140;8.904;2023-04-09T14:58:26;15.07;;;9.77;;
11854;SDS011;5987;53.140;8.904;2023-04-09T15:01:29;12.10;;;8.83;;
11854;SDS011;5987;53.140;8.904;2023-04-09T15:04:33;13.60;;;8.57;;
11854;SDS011;5987;53.140;8.904;2023-04-09T15:07:38;10.77;;;8.40;;
11854;SDS011;5987;53.140;8.904;2023-04-09T15:10:42;14.23;;;8.63;;
11854;SDS011;5987;53.140;8.904;2023-04-09T15:13:46;13.37;;;9.37;;
11854;SDS011;5987;53.140;8.904;2023-04-09T15:16:50;13.63;;;9.10;;
11854;SDS011;5987;53.140;8.904;2023-04-09T15:19:56;11.70;;;8.97;;
11854;SDS011;5987;53.140;8.904;2023-04-09T15:23:02;10.40;;;8.30;;
11854;SDS011;5987;53.140;8.904;2023-04-09T15:26:06;12.23;;;9.27;;
11854;SDS011;5987;53.140;8.904;2023-04-09T15:29:09;14.30;;;9.47;;
11854;SDS011;5987;53.140;8.904;2023-04-09T15:32:13;13.70;;;9.43;;
11854;SDS011;5987;53.140;8.904;2023-04-09T15:35:16;11.77;;;9.30;;
11854;SDS011;5987;53.140;8.904;2023-04-09T15:38:26;10.67;;;8.97;;
11854;SDS011;5987;53.140;8.904;2023-04-09T15:41:30;12.90;;;9.57;;
11854;SDS011;5987;53.140;8.904;2023-04-09T15:44:34;11.63;;;9.60;;
11854;SDS011;5987;53.140;8.904;2023-04-09T15:47:39;14.10;;;10.20;;
11854;SDS011;5987;53.140;8.904;2023-04-09T15:50:43;13.27;;;10.00;;
11854;SDS011;5987;53.140;8.904;2023-04-09T15:53:48;12.70;;;9.70;;
11854;SDS011;5987;53.140;8.904;2023-04-09T15:56:52;12.20;;;9.17;;
11854;SDS011;5987;53.140;8.904;2023-04-09T15:59:55;13.80;;;9.87;;
11854;SDS011;5987;53.140;8.904;2023-04-09T16:02:59;14.53;;;9.63;;
11854;SDS011;5987;53.140;8.904;2023-04-09T16:06:03;12.17;;;9.33;;
11854;SDS011;5987;53.140;8.904;2023-04-09T16:09:09;10.73;;;8.70;;
11854;SDS011;5987;53.140;8.904;2023-04-09T16:12:13;12.50;;;8.93;;
11854;SDS011;5987;53.140;8.904;2023-04-09T16:15:16;13.37;;;9.63;;
11854;SDS011;5987;53.140;8.904;2023-04-09T16:18:20;14.10;;;9.37;;
11854;SDS011;5987;53.140;8.904;2023-04-09T16:21:24;14.80;;;10.73;;
11854;SDS011;5987;53.140;8.904;2023-04-09T16:24:30;18.60;;;11.93;;
11854;SDS011;5987;53.140;8.904;2023-04-09T16:27:34;21.07;;;14.23;;
11854;SDS011;5987;53.140;8.904;2023-04-09T16:30:37;21.97;;;14.30;;
11854;SDS011;5987;53.140;8.904;2023-04-09T16:33:41;22.93;;;15.47;;
11854;SDS011;5987;53.140;8.904;2023-04-09T16:36:45;25.37;;;17.50;;
11854;SDS011;5987;53.140;8.904;2023-04-09T16:39:52;26.13;;;16.10;;
11854;SDS011;5987;53.140;8.904;2023-04-09T16:42:56;25.10;;;17.00;;
11854;SDS011;5987;53.140;8.904;2023-04-09T16:46:00;27.03;;;17.40;;
11854;SDS011;5987;53.140;8.904;2023-04-09T16:49:06;27.50;;;17.83;;
11854;SDS011;5987;53.140;8.904;2023-04-09T16:52:10;22.73;;;15.70;;
11854;SDS011;5987;53.140;8.904;2023-04-09T16:55:15;22.83;;;15.73;;
11854;SDS011;5987;53.140;8.904;2023-04-09T16:58:19;23.87;;;15.30;;
11854;SDS011;5987;53.140;8.904;2023-04-09T17:01:22;22.47;;;15.43;;
11854;SDS011;5987;53.140;8.904;2023-04-09T17:04:26;26.87;;;16.97;;
11854;SDS011;5987;53.140;8.904;2023-04-09T17:07:32;24.03;;;16.83;;
11854;SDS011;5987;53.140;8.904;2023-04-09T17:10:37;26.70;;;18.40;;
11854;SDS011;5987;53.140;8.904;2023-04-09T17:13:40;23.23;;;16.43;;
11854;SDS011;5987;53.140;8.904;2023-04-09T17:16:45;27.13;;;16.37;;
11854;SDS011;5987;53.140;8.904;2023-04-09T17:19:49;24.70;;;16.83;;
11854;SDS011;5987;53.140;8.904;2023-04-09T17:22:53;24.40;;;15.63;;
11854;SDS011;5987;53.140;8.904;2023-04-09T17:25:59;22.60;;;16.03;;
11854;SDS011;5987;53.140;8.904;2023-04-09T17:29:03;23.33;;;15.90;;
11854;SDS011;5987;53.140;8.904;2023-04-09T17:32:07;27.03;;;20.63;;
11854;SDS011;5987;53.140;8.904;2023-04-09T17:35:11;27.73;;;19.60;;
11854;SDS011;5987;53.140;8.904;2023-04-09T17:38:15;25.83;;;17.43;;
11854;SDS011;5987;53.140;8.904;2023-04-09T17:41:23;27.00;;;19.17;;
11854;SDS011;5987;53.140;8.904;2023-04-09T17:44:28;25.53;;;17.60;;
11854;SDS011;5987;53.140;8.904;2023-04-09T17:47:35;27.60;;;19.37;;
11854;SDS011;5987;53.140;8.904;2023-04-09T17:50:40;33.70;;;22.07;;
11854;SDS011;5987;53.140;8.904;2023-04-09T17:53:44;28.17;;;18.70;;
11854;SDS011;5987;53.140;8.904;2023-04-09T17:56:49;27.73;;;19.23;;
11854;SDS011;5987;53.140;8.904;2023-04-09T17:59:53;28.27;;;18.83;;
11854;SDS011;5987;53.140;8.904;2023-04-09T18:02:57;30.77;;;19.93;;
11854;SDS011;5987;53.140;8.904;2023-04-09T18:06:01;32.53;;;20.53;;
11854;SDS011;5987;53.140;8.904;2023-04-09T18:09:05;36.83;;;22.90;;
11854;SDS011;5987;53.140;8.904;2023-04-09T18:12:10;39.93;;;24.97;;
11854;SDS011;5987;53.140;8.904;2023-04-09T18:15:14;33.17;;;21.97;;
11854;SDS011;5987;53.140;8.904;2023-04-09T18:18:19;36.23;;;21.77;;
11854;SDS011;5987;53.140;8.904;2023-04-09T18:21:22;35.63;;;22.07;;
11854;SDS011;5987;53.140;8.904;2023-04-09T18:24:27;36.67;;;25.03;;
11854;SDS011;5987;53.140;8.904;2023-04-09T18:27:32;43.50;;;27.50;;